Time,TemperatureF,DewpointF,PressureIn,WindDirection,WindDirectionDegrees,WindSpeedMPH,WindSpeedGustMPH,Humidity,HourlyPrecipIn,Conditions,Clouds,dailyrainin,SoftwareType,DateUTC
2013-08-28 00:00:00,60.4,24.5,29.85,West,266,0.0,0.0,25,0.00,,,0.00,VWS V14.01,2013-08-28 07:00:00,
2013-08-28 00:05:00,60.4,24.5,29.85,West,267,0.0,0.0,25,0.00,,,0.00,VWS V14.01,2013-08-28 07:05:00,
2013-08-28 00:10:00,60.4,24.5,29.85,West,267,0.0,0.0,25,0.00,,,0.00,VWS V14.01,2013-08-28 07:10:00,
2013-08-28 00:15:00,60.4,24.5,29.85,West,267,0.0,0.0,25,0.00,,,0.00,VWS V14.01,2013-08-28 07:15:00,
2013-08-28 00:20:00,60.6,24.6,29.85,West,267,0.0,0.0,25,0.00,,,0.00,VWS V14.01,2013-08-28 07:20:00,
2013-08-28 00:26:00,60.6,24.6,29.85,West,267,0.0,0.0,25,0.00,,,0.00,VWS V14.01,2013-08-28 07:26:00,
2013-08-28 00:32:00,60.8,24.8,29.85,West,267,0.0,0.0,25,0.00,,,0.00,VWS V14.01,2013-08-28 07:32:00,
2013-08-28 00:37:00,60.6,24.6,29.85,SSW,210,0.0,0.0,25,0.00,,,0.00,VWS V14.01,2013-08-28 07:37:00,
2013-08-28 00:42:00,60.6,24.6,29.85,SSW,211,0.0,0.0,25,0.00,,,0.00,VWS V14.01,2013-08-28 07:42:00,
2013-08-28 00:48:00,60.6,24.6,29.85,SSW,211,0.0,0.0,25,0.00,,,0.00,VWS V14.01,2013-08-28 07:48:00,
2013-08-28 00:54:00,60.6,24.6,29.85,SSW,211,0.0,0.0,25,0.00,,,0.00,VWS V14.01,2013-08-28 07:54:00,
2013-08-28 01:00:00,60.4,24.5,29.85,SSW,211,0.0,0.0,25,0.00,,,0.00,VWS V14.01,2013-08-28 08:00:00,
2013-08-28 01:06:00,60.4,24.5,29.85,SSW,211,0.0,0.0,25,0.00,,,0.00,VWS V14.01,2013-08-28 08:06:00,
2013-08-28 01:12:00,60.4,24.5,29.82,SSW,211,0.0,0.0,25,0.00,,,0.00,VWS V14.01,2013-08-28 08:12:00,
2013-08-28 01:18:00,60.4,24.5,29.82,SSW,211,0.0,0.0,25,0.00,,,0.00,VWS V14.01,2013-08-28 08:18:00,
2013-08-28 01:23:00,60.3,24.3,29.82,SSW,211,0.0,0.0,25,0.00,,,0.00,VWS V14.01,2013-08-28 08:23:00,
2013-08-28 01:28:00,60.3,24.3,29.82,SSW,211,0.0,0.0,25,0.00,,,0.00,VWS V14.01,2013-08-28 08:28:00,
2013-08-28 01:34:00,60.3,24.3,29.82,SSW,211,0.0,0.0,25,0.00,,,0.00,VWS V14.01,2013-08-28 08:34:00,
2013-08-28 01:40:00,60.3,24.3,29.82,SSW,211,0.0,0.0,25,0.00,,,0.00,VWS V14.01,2013-08-28 08:40:00,
2013-08-28 01:45:00,60.1,24.2,29.82,SSW,211,0.0,0.0,25,0.00,,,0.00,VWS V14.01,2013-08-28 08:45:00,
2013-08-28 01:50:00,60.1,24.2,29.82,SSW,211,0.0,0.0,25,0.00,,,0.00,VWS V14.01,2013-08-28 08:50:00,
2013-08-28 01:56:00,60.1,24.2,29.82,SSW,211,0.0,0.0,25,0.00,,,0.00,VWS V14.01,2013-08-28 08:56:00,
2013-08-28 02:01:00,59.9,24.0,29.82,SSW,211,0.0,0.0,25,0.00,,,0.00,VWS V14.01,2013-08-28 09:01:00,
2013-08-28 02:07:00,59.7,23.9,29.82,SSW,211,0.0,0.0,25,0.00,,,0.00,VWS V14.01,2013-08-28 09:07:00,
2013-08-28 02:12:00,59.5,23.7,29.82,SSW,211,0.0,0.0,25,0.00,,,0.00,VWS V14.01,2013-08-28 09:12:00,
2013-08-28 02:18:00,59.4,23.6,29.82,SSW,211,0.0,0.0,25,0.00,,,0.00,VWS V14.01,2013-08-28 09:18:00,
2013-08-28 02:23:00,59.2,23.4,29.82,East,79,0.0,0.0,25,0.00,,,0.00,VWS V14.01,2013-08-28 09:23:00,
2013-08-28 02:28:00,59.0,23.2,29.82,East,79,0.0,0.0,25,0.00,,,0.00,VWS V14.01,2013-08-28 09:28:00,
2013-08-28 02:33:00,58.8,23.1,29.82,East,79,0.0,0.0,25,0.00,,,0.00,VWS V14.01,2013-08-28 09:33:00,
2013-08-28 02:38:00,58.8,23.1,29.82,East,79,0.0,0.0,25,0.00,,,0.00,VWS V14.01,2013-08-28 09:38:00,
2013-08-28 02:44:00,59.0,23.2,29.82,East,79,0.0,0.0,25,0.00,,,0.00,VWS V14.01,2013-08-28 09:44:00,
2013-08-28 02:49:00,59.0,23.2,29.82,East,79,0.0,0.0,25,0.00,,,0.00,VWS V14.01,2013-08-28 09:49:00,
2013-08-28 02:54:00,59.0,23.2,29.82,East,79,0.0,0.0,25,0.00,,,0.00,VWS V14.01,2013-08-28 09:54:00,
2013-08-28 02:59:00,59.2,23.4,29.82,East,79,0.0,0.0,25,0.00,,,0.00,VWS V14.01,2013-08-28 09:59:00,
2013-08-28 03:04:00,59.2,23.4,29.82,East,79,0.0,0.0,25,0.00,,,0.00,VWS V14.01,2013-08-28 10:04:00,
2013-08-28 03:10:00,59.2,23.4,29.82,East,79,0.0,0.0,25,0.00,,,0.00,VWS V14.01,2013-08-28 10:10:00,
2013-08-28 03:15:00,59.4,23.6,29.82,East,79,0.0,0.0,25,0.00,,,0.00,VWS V14.01,2013-08-28 10:15:00,
2013-08-28 03:20:00,59.4,23.6,29.82,East,79,0.0,0.0,25,0.00,,,0.00,VWS V14.01,2013-08-28 10:20:00,
2013-08-28 03:25:00,59.4,23.6,29.82,East,79,0.0,0.0,25,0.00,,,0.00,VWS V14.01,2013-08-28 10:25:00,
2013-08-28 03:31:00,59.4,23.6,29.82,East,79,0.0,0.0,25,0.00,,,0.00,VWS V14.01,2013-08-28 10:31:00,
2013-08-28 03:36:00,59.4,23.6,29.82,East,79,0.0,0.0,25,0.00,,,0.00,VWS V14.01,2013-08-28 10:36:00,
2013-08-28 03:41:00,59.4,23.6,29.82,East,79,0.0,0.0,25,0.00,,,0.00,VWS V14.01,2013-08-28 10:41:00,
2013-08-28 03:46:00,59.4,23.6,29.82,East,79,0.0,0.0,25,0.00,,,0.00,VWS V14.01,2013-08-28 10:46:00,
2013-08-28 03:52:00,59.4,23.6,29.82,East,79,0.0,0.0,25,0.00,,,0.00,VWS V14.01,2013-08-28 10:52:00,
2013-08-28 03:53:00,59.4,23.6,29.82,East,79,0.0,0.0,25,0.00,,,0.00,VWS V14.01,2013-08-28 10:53:00,
2013-08-28 03:58:00,59.4,23.6,29.82,East,79,0.0,0.0,25,0.00,,,0.00,VWS V14.01,2013-08-28 10:58:00,
2013-08-28 04:03:00,59.4,23.6,29.82,East,79,0.0,0.0,25,0.00,,,0.00,VWS V14.01,2013-08-28 11:03:00,
2013-08-28 04:08:00,59.2,23.4,29.82,East,79,0.0,0.0,25,0.00,,,0.00,VWS V14.01,2013-08-28 11:08:00,
2013-08-28 04:13:00,59.2,23.4,29.82,East,79,0.0,0.0,25,0.00,,,0.00,VWS V14.01,2013-08-28 11:13:00,
2013-08-28 04:19:00,59.0,23.2,29.82,East,79,0.0,0.0,25,0.00,,,0.00,VWS V14.01,2013-08-28 11:19:00,
2013-08-28 04:24:00,58.8,23.1,29.82,East,79,0.0,0.0,25,0.00,,,0.00,VWS V14.01,2013-08-28 11:24:00,
2013-08-28 04:30:00,58.8,23.1,29.82,East,79,0.0,0.0,25,0.00,,,0.00,VWS V14.01,2013-08-28 11:30:00,
2013-08-28 04:35:00,58.6,22.9,29.82,East,79,0.0,0.0,25,0.00,,,0.00,VWS V14.01,2013-08-28 11:35:00,
2013-08-28 04:41:00,58.5,22.8,29.79,East,79,0.0,0.0,25,0.00,,,0.00,VWS V14.01,2013-08-28 11:41:00,
2013-08-28 04:47:00,58.5,22.8,29.79,East,79,0.0,0.0,25,0.00,,,0.00,VWS V14.01,2013-08-28 11:47:00,
2013-08-28 04:52:00,58.5,22.8,29.79,East,79,0.0,0.0,25,0.00,,,0.00,VWS V14.01,2013-08-28 11:52:00,
2013-08-28 04:57:00,58.5,22.8,29.79,East,79,0.0,0.0,25,0.00,,,0.00,VWS V14.01,2013-08-28 11:57:00,
2013-08-28 05:02:00,58.3,22.6,29.79,East,79,0.0,0.0,25,0.00,,,0.00,VWS V14.01,2013-08-28 12:02:00,
2013-08-28 05:07:00,58.3,22.6,29.79,East,79,0.0,0.0,25,0.00,,,0.00,VWS V14.01,2013-08-28 12:07:00,
2013-08-28 05:12:00,58.5,22.8,29.79,East,79,0.0,0.0,25,0.00,,,0.00,VWS V14.01,2013-08-28 12:12:00,
2013-08-28 05:17:00,58.5,22.8,29.79,East,79,0.0,0.0,25,0.00,,,0.00,VWS V14.01,2013-08-28 12:17:00,
2013-08-28 05:22:00,58.5,22.8,29.82,East,79,0.0,0.0,25,0.00,,,0.00,VWS V14.01,2013-08-28 12:22:00,
2013-08-28 05:28:00,58.6,22.9,29.82,East,79,0.0,0.0,25,0.00,,,0.00,VWS V14.01,2013-08-28 12:28:00,
2013-08-28 05:33:00,58.8,23.1,29.82,East,79,0.0,0.0,25,0.00,,,0.00,VWS V14.01,2013-08-28 12:33:00,
2013-08-28 05:38:00,59.0,23.2,29.82,East,79,0.0,0.0,25,0.00,,,0.00,VWS V14.01,2013-08-28 12:38:00,
2013-08-28 05:44:00,58.8,23.1,29.82,East,79,0.0,0.0,25,0.00,,,0.00,VWS V14.01,2013-08-28 12:44:00,
2013-08-28 05:49:00,59.9,24.0,29.82,West,277,13.2,13.2,25,0.00,,,0.00,VWS V14.01,2013-08-28 12:49:00,
2013-08-28 05:54:00,59.4,23.6,29.82,North,350,3.1,4.0,25,0.00,,,0.00,VWS V14.01,2013-08-28 12:54:00,
2013-08-28 05:59:00,59.2,23.4,29.82,West,260,2.7,5.8,25,0.00,,,0.00,VWS V14.01,2013-08-28 12:59:00,
2013-08-28 06:05:00,59.2,23.4,29.82,SW,231,7.6,7.6,25,0.00,,,0.00,VWS V14.01,2013-08-28 13:05:00,
2013-08-28 06:10:00,59.4,23.6,29.85,WSW,251,2.7,7.6,25,0.00,,,0.00,VWS V14.01,2013-08-28 13:10:00,
2013-08-28 06:16:00,59.2,23.4,29.85,West,260,7.6,7.6,25,0.00,,,0.00,VWS V14.01,2013-08-28 13:16:00,
2013-08-28 06:21:00,59.2,23.4,29.85,SW,229,8.3,8.7,25,0.00,,,0.00,VWS V14.01,2013-08-28 13:21:00,
2013-08-28 06:26:00,59.0,23.2,29.85,WSW,250,10.5,10.5,25,0.00,,,0.00,VWS V14.01,2013-08-28 13:26:00,
2013-08-28 06:32:00,59.2,23.4,29.85,WNW,283,4.0,10.1,25,0.00,,,0.00,VWS V14.01,2013-08-28 13:32:00,
2013-08-28 06:37:00,58.8,23.1,29.85,SW,222,2.2,4.9,25,0.00,,,0.00,VWS V14.01,2013-08-28 13:37:00,
2013-08-28 06:42:00,58.6,22.9,29.85,West,272,4.9,5.4,25,0.00,,,0.00,VWS V14.01,2013-08-28 13:42:00,
2013-08-28 06:48:00,58.6,22.9,29.85,SW,217,4.0,4.0,25,0.00,,,0.00,VWS V14.01,2013-08-28 13:48:00,
2013-08-28 06:53:00,58.6,22.9,29.88,SSW,196,6.3,7.6,25,0.00,,,0.00,VWS V14.01,2013-08-28 13:53:00,
2013-08-28 06:59:00,58.6,23.9,29.88,West,260,3.1,4.0,26,0.00,,,0.00,VWS V14.01,2013-08-28 13:59:00,
2013-08-28 07:05:00,58.6,23.9,29.88,SSW,212,3.1,5.8,26,0.00,,,0.00,VWS V14.01,2013-08-28 14:05:00,
2013-08-28 07:10:00,58.6,23.9,29.88,WSW,245,5.8,5.8,26,0.00,,,0.00,VWS V14.01,2013-08-28 14:10:00,
2013-08-28 07:15:00,58.6,23.9,29.88,WNW,288,4.0,4.0,26,0.00,,,0.00,VWS V14.01,2013-08-28 14:15:00,
2013-08-28 07:21:00,58.6,23.9,29.88,NNE,27,3.1,3.6,26,0.00,,,0.00,VWS V14.01,2013-08-28 14:21:00,
2013-08-28 07:26:00,58.6,23.9,29.85,NNE,14,0.0,0.0,26,0.00,,,0.00,VWS V14.01,2013-08-28 14:26:00,
2013-08-28 07:31:00,58.6,23.9,29.85,SW,214,3.1,3.6,26,0.00,,,0.00,VWS V14.01,2013-08-28 14:31:00,
2013-08-28 07:37:00,59.0,23.2,29.88,SW,214,6.3,7.2,25,0.00,,,0.00,VWS V14.01,2013-08-28 14:37:00,
2013-08-28 07:42:00,58.8,24.0,29.88,SSW,203,3.1,3.1,26,0.00,,,0.00,VWS V14.01,2013-08-28 14:42:00,
2013-08-28 07:47:00,58.6,23.9,29.88,South,186,0.0,0.0,26,0.00,,,0.00,VWS V14.01,2013-08-28 14:47:00,
2013-08-28 07:52:00,58.8,24.0,29.88,WSW,255,3.6,5.8,26,0.00,,,0.00,VWS V14.01,2013-08-28 14:52:00,
2013-08-28 07:58:00,58.8,24.0,29.88,South,173,5.8,8.1,26,0.00,,,0.00,VWS V14.01,2013-08-28 14:58:00,
2013-08-28 08:03:00,59.0,23.2,29.88,SW,232,2.7,4.9,25,0.00,,,0.00,VWS V14.01,2013-08-28 15:03:00,
2013-08-28 08:09:00,58.8,24.0,29.88,SW,216,2.7,4.0,26,0.04,,,0.04,VWS V14.01,2013-08-28 15:09:00,
2013-08-28 08:14:00,58.8,24.0,29.88,SSW,200,3.6,5.8,26,0.04,,,0.04,VWS V14.01,2013-08-28 15:14:00,
2013-08-28 08:20:00,58.8,24.0,29.88,West,263,4.0,4.0,26,0.04,,,0.04,VWS V14.01,2013-08-28 15:20:00,
2013-08-28 08:26:00,58.8,24.0,29.88,NNW,341,0.0,0.0,26,0.04,,,0.04,VWS V14.01,2013-08-28 15:26:00,
2013-08-28 08:31:00,58.8,24.0,29.88,SW,221,3.1,4.0,26,0.04,,,0.04,VWS V14.01,2013-08-28 15:31:00,
2013-08-28 08:37:00,59.0,23.2,29.88,WSW,242,4.9,4.9,25,0.04,,,0.04,VWS V14.01,2013-08-28 15:37:00,
2013-08-28 08:42:00,59.0,23.2,29.88,NNW,332,0.0,0.0,25,0.04,,,0.04,VWS V14.01,2013-08-28 15:42:00,
2013-08-28 08:47:00,59.2,23.4,29.88,WSW,247,2.7,6.3,25,0.04,,,0.04,VWS V14.01,2013-08-28 15:47:00,
2013-08-28 08:53:00,59.0,23.2,29.88,SW,223,5.8,5.8,25,0.04,,,0.04,VWS V14.01,2013-08-28 15:53:00,
2013-08-28 08:58:00,59.0,23.2,29.88,WSW,241,5.8,5.8,25,0.04,,,0.04,VWS V14.01,2013-08-28 15:58:00,
2013-08-28 09:04:00,59.5,23.7,29.88,SW,229,6.3,8.3,25,0.04,,,0.04,VWS V14.01,2013-08-28 16:04:00,
2013-08-28 09:09:00,59.5,23.7,29.88,West,261,3.6,4.0,25,0.00,,,0.04,VWS V14.01,2013-08-28 16:09:00,
2013-08-28 09:15:00,59.5,23.7,29.88,West,262,0.0,2.7,25,0.00,,,0.04,VWS V14.01,2013-08-28 16:15:00,
2013-08-28 09:21:00,59.5,23.7,29.88,NW,308,3.1,3.1,25,0.00,,,0.04,VWS V14.01,2013-08-28 16:21:00,
2013-08-28 09:27:00,59.5,23.7,29.88,WSW,250,0.0,0.0,25,0.00,,,0.04,VWS V14.01,2013-08-28 16:27:00,
2013-08-28 09:32:00,59.5,23.7,29.88,SW,215,2.7,6.3,25,0.00,,,0.04,VWS V14.01,2013-08-28 16:32:00,
2013-08-28 09:37:00,59.7,23.9,29.88,SW,217,4.0,4.0,25,0.00,,,0.04,VWS V14.01,2013-08-28 16:37:00,
2013-08-28 09:43:00,59.5,23.7,29.88,West,278,0.0,2.7,25,0.00,,,0.04,VWS V14.01,2013-08-28 16:43:00,
2013-08-28 09:49:00,59.7,23.9,29.88,West,270,0.0,0.0,25,0.00,,,0.04,VWS V14.01,2013-08-28 16:49:00,
2013-08-28 09:54:00,59.7,23.9,29.88,SSW,207,5.4,5.4,25,0.00,,,0.04,VWS V14.01,2013-08-28 16:54:00,
2013-08-28 09:59:00,59.7,23.9,29.88,SSW,203,5.4,5.4,25,0.00,,,0.04,VWS V14.01,2013-08-28 16:59:00,
2013-08-28 10:05:00,59.7,23.9,29.88,WSW,247,3.6,4.0,25,0.00,,,0.04,VWS V14.01,2013-08-28 17:05:00,
2013-08-28 10:10:00,59.9,24.0,29.88,SW,220,4.0,5.4,25,0.00,,,0.04,VWS V14.01,2013-08-28 17:10:00,
2013-08-28 10:15:00,60.3,24.3,29.88,SW,220,3.6,5.8,25,0.00,,,0.04,VWS V14.01,2013-08-28 17:15:00,
2013-08-28 10:21:00,61.0,24.9,29.88,SSW,212,4.9,5.4,25,0.00,,,0.04,VWS V14.01,2013-08-28 17:21:00,
2013-08-28 10:26:00,61.0,24.9,29.88,SW,221,7.6,7.6,25,0.00,,,0.04,VWS V14.01,2013-08-28 17:26:00,
2013-08-28 10:31:00,61.5,25.4,29.88,SW,221,7.6,7.6,25,0.00,,,0.04,VWS V14.01,2013-08-28 17:31:00,
2013-08-28 10:37:00,61.7,25.5,29.88,SW,217,4.5,8.3,25,0.00,,,0.04,VWS V14.01,2013-08-28 17:37:00,
2013-08-28 10:42:00,62.2,26.0,29.88,SW,224,8.3,8.7,25,0.00,,,0.04,VWS V14.01,2013-08-28 17:42:00,
2013-08-28 10:47:00,62.2,26.0,29.88,SW,229,6.3,8.7,25,0.00,,,0.04,VWS V14.01,2013-08-28 17:47:00,
2013-08-28 10:53:00,62.4,26.2,29.88,SW,222,5.8,7.6,25,0.00,,,0.04,VWS V14.01,2013-08-28 17:53:00,
2013-08-28 10:59:00,62.8,25.5,29.88,SW,219,5.4,10.1,24,0.00,,,0.04,VWS V14.01,2013-08-28 17:59:00,
2013-08-28 11:05:00,63.1,25.8,29.88,SW,230,7.6,8.1,24,0.00,,,0.04,VWS V14.01,2013-08-28 18:05:00,
2013-08-28 11:10:00,63.5,26.1,29.88,SW,229,8.3,8.3,24,0.00,,,0.04,VWS V14.01,2013-08-28 18:10:00,
2013-08-28 11:15:00,64.4,26.9,29.88,SW,225,8.7,8.7,24,0.00,,,0.04,VWS V14.01,2013-08-28 18:15:00,
2013-08-28 11:21:00,64.6,27.0,29.88,WSW,241,5.4,9.2,24,0.00,,,0.04,VWS V14.01,2013-08-28 18:21:00,
2013-08-28 11:27:00,65.1,27.5,29.88,SW,216,8.1,8.1,24,0.00,,,0.04,VWS V14.01,2013-08-28 18:27:00,
2013-08-28 11:32:00,65.5,27.8,29.88,SW,222,5.4,8.3,24,0.00,,,0.04,VWS V14.01,2013-08-28 18:32:00,
2013-08-28 11:37:00,65.7,27.9,29.88,SW,221,8.1,9.6,24,0.00,,,0.04,VWS V14.01,2013-08-28 18:37:00,
2013-08-28 11:42:00,66.0,28.2,29.88,SW,225,7.6,8.3,24,0.00,,,0.04,VWS V14.01,2013-08-28 18:42:00,
2013-08-28 11:48:00,66.6,28.7,29.88,SW,225,6.3,7.6,24,0.00,,,0.04,VWS V14.01,2013-08-28 18:48:00,
2013-08-28 11:53:00,66.9,29.0,29.88,SW,224,7.6,7.6,24,0.00,,,0.04,VWS V14.01,2013-08-28 18:53:00,
2013-08-28 11:58:00,67.1,29.1,29.88,SW,219,6.3,6.7,24,0.00,,,0.04,VWS V14.01,2013-08-28 18:58:00,
2013-08-28 12:03:00,67.5,29.4,29.88,SW,220,7.6,7.6,24,0.00,,,0.04,VWS V14.01,2013-08-28 19:03:00,
2013-08-28 12:08:00,67.8,29.7,29.88,SW,224,7.6,7.6,24,0.00,,,0.04,VWS V14.01,2013-08-28 19:08:00,
2013-08-28 12:14:00,68.0,28.9,29.88,SW,219,6.7,6.7,23,0.00,,,0.04,VWS V14.01,2013-08-28 19:14:00,
2013-08-28 12:19:00,68.0,28.9,29.88,SW,218,4.9,5.4,23,0.00,,,0.04,VWS V14.01,2013-08-28 19:19:00,
2013-08-28 12:25:00,68.4,29.1,29.88,SW,218,4.0,4.0,23,0.00,,,0.04,VWS V14.01,2013-08-28 19:25:00,
2013-08-28 12:30:00,68.0,28.9,29.88,SSW,212,5.4,5.4,23,0.00,,,0.04,VWS V14.01,2013-08-28 19:30:00,
2013-08-28 12:36:00,68.2,29.0,29.88,SSW,205,4.9,5.8,23,0.00,,,0.04,VWS V14.01,2013-08-28 19:36:00,
2013-08-28 12:41:00,68.7,29.5,29.88,SW,226,6.3,6.3,23,0.00,,,0.04,VWS V14.01,2013-08-28 19:41:00,
2013-08-28 12:46:00,70.0,30.5,29.88,SW,214,5.4,5.8,23,0.00,,,0.04,VWS V14.01,2013-08-28 19:46:00,
2013-08-28 12:51:00,70.3,30.8,29.85,SW,218,6.3,8.1,23,0.00,,,0.04,VWS V14.01,2013-08-28 19:51:00,
2013-08-28 12:56:00,70.7,31.1,29.85,SSW,211,7.6,8.7,23,0.00,,,0.04,VWS V14.01,2013-08-28 19:56:00,
2013-08-28 13:02:00,71.4,31.7,29.85,SW,220,7.6,7.6,23,0.00,,,0.04,VWS V14.01,2013-08-28 20:02:00,
2013-08-28 13:07:00,72.0,31.1,29.85,SW,218,8.1,8.3,22,0.00,,,0.04,VWS V14.01,2013-08-28 20:07:00,
2013-08-28 13:13:00,72.1,31.2,29.85,SW,221,6.7,8.7,22,0.00,,,0.04,VWS V14.01,2013-08-28 20:13:00,
2013-08-28 13:18:00,71.8,30.9,29.85,SW,220,5.4,8.1,22,0.00,,,0.04,VWS V14.01,2013-08-28 20:18:00,
2013-08-28 13:23:00,72.0,31.1,29.85,SW,221,8.7,8.7,22,0.00,,,0.04,VWS V14.01,2013-08-28 20:23:00,
2013-08-28 13:28:00,72.1,31.2,29.85,SW,230,6.3,6.3,22,0.00,,,0.04,VWS V14.01,2013-08-28 20:28:00,
2013-08-28 13:33:00,72.3,31.4,29.85,SW,227,5.8,8.3,22,0.00,,,0.04,VWS V14.01,2013-08-28 20:33:00,
2013-08-28 13:38:00,72.5,31.5,29.85,SW,219,7.6,10.1,22,0.00,,,0.04,VWS V14.01,2013-08-28 20:38:00,
2013-08-28 13:44:00,72.7,31.7,29.85,SW,214,8.7,8.7,22,0.00,,,0.04,VWS V14.01,2013-08-28 20:44:00,
2013-08-28 13:49:00,72.9,31.8,29.85,SW,235,7.6,10.1,22,0.00,,,0.04,VWS V14.01,2013-08-28 20:49:00,
2013-08-28 13:54:00,72.7,31.7,29.85,WSW,252,8.7,8.7,22,0.00,,,0.04,VWS V14.01,2013-08-28 20:54:00,
2013-08-28 14:00:00,72.5,31.5,29.85,SW,221,7.2,7.2,22,0.00,,,0.04,VWS V14.01,2013-08-28 21:00:00,
2013-08-28 14:05:00,72.1,31.2,29.85,SW,224,8.3,8.3,22,0.00,,,0.04,VWS V14.01,2013-08-28 21:05:00,
2013-08-28 14:11:00,72.0,31.1,29.85,SW,229,8.3,8.3,22,0.00,,,0.04,VWS V14.01,2013-08-28 21:11:00,
2013-08-28 14:16:00,72.0,31.1,29.85,SW,222,7.6,7.6,22,0.00,,,0.04,VWS V14.01,2013-08-28 21:16:00,
2013-08-28 14:21:00,72.3,31.4,29.85,SSW,212,6.3,6.3,22,0.00,,,0.04,VWS V14.01,2013-08-28 21:21:00,
2013-08-28 14:27:00,72.3,31.4,29.85,SSW,203,4.0,7.6,22,0.00,,,0.04,VWS V14.01,2013-08-28 21:27:00,
2013-08-28 14:32:00,72.3,31.4,29.85,SW,222,6.7,8.1,22,0.00,,,0.04,VWS V14.01,2013-08-28 21:32:00,
2013-08-28 14:38:00,72.3,31.4,29.85,WSW,247,3.1,5.4,22,0.00,,,0.04,VWS V14.01,2013-08-28 21:38:00,
2013-08-28 14:43:00,72.3,31.4,29.85,SW,226,6.3,6.3,22,0.00,,,0.04,VWS V14.01,2013-08-28 21:43:00,
2013-08-28 14:48:00,72.3,31.4,29.85,WSW,253,7.6,7.6,22,0.00,,,0.04,VWS V14.01,2013-08-28 21:48:00,
2013-08-28 14:53:00,72.5,31.5,29.85,SW,214,6.3,6.3,22,0.00,,,0.04,VWS V14.01,2013-08-28 21:53:00,
2013-08-28 14:58:00,72.3,31.4,29.85,WSW,237,3.1,5.8,22,0.00,,,0.04,VWS V14.01,2013-08-28 21:58:00,
2013-08-28 15:03:00,72.3,31.4,29.85,SW,222,4.0,4.0,22,0.00,,,0.04,VWS V14.01,2013-08-28 22:03:00,
2013-08-28 15:09:00,72.5,31.5,29.85,WSW,237,5.4,5.4,22,0.00,,,0.04,VWS V14.01,2013-08-28 22:09:00,
2013-08-28 15:14:00,72.5,31.5,29.85,WNW,288,5.4,5.4,22,0.00,,,0.04,VWS V14.01,2013-08-28 22:14:00,
2013-08-28 15:19:00,71.8,30.9,29.85,WNW,288,0.0,0.0,22,0.00,,,0.04,VWS V14.01,2013-08-28 22:19:00,
2013-08-28 15:25:00,71.2,31.6,29.85,WNW,288,0.0,0.0,23,0.00,,,0.04,VWS V14.01,2013-08-28 22:25:00,
2013-08-28 15:30:00,70.7,31.1,29.85,WNW,288,0.0,0.0,23,0.00,,,0.04,VWS V14.01,2013-08-28 22:30:00,
2013-08-28 15:35:00,70.3,30.8,29.85,WSW,240,0.0,0.0,23,0.00,,,0.04,VWS V14.01,2013-08-28 22:35:00,
2013-08-28 15:41:00,70.2,30.7,29.85,WSW,242,3.6,3.6,23,0.00,,,0.04,VWS V14.01,2013-08-28 22:41:00,
2013-08-28 15:47:00,70.0,30.5,29.85,WSW,242,0.0,0.0,23,0.00,,,0.04,VWS V14.01,2013-08-28 22:47:00,
2013-08-28 15:53:00,68.9,29.6,29.85,WSW,242,0.0,0.0,23,0.00,,,0.04,VWS V14.01,2013-08-28 22:53:00,
2013-08-28 15:58:00,67.8,29.7,29.85,WSW,242,0.0,0.0,24,0.00,,,0.04,VWS V14.01,2013-08-28 22:58:00,
2013-08-28 16:04:00,66.9,29.0,29.85,NNW,329,0.0,0.0,24,0.00,,,0.04,VWS V14.01,2013-08-28 23:04:00,
2013-08-28 16:09:00,66.4,28.5,29.85,NNW,331,0.0,0.0,24,0.00,,,0.04,VWS V14.01,2013-08-28 23:09:00,
2013-08-28 16:14:00,66.2,28.4,29.85,NNW,345,0.0,0.0,24,0.00,,,0.04,VWS V14.01,2013-08-28 23:14:00,
2013-08-28 16:19:00,66.7,28.8,29.85,North,349,0.0,0.0,24,0.00,,,0.04,VWS V14.01,2013-08-28 23:19:00,
2013-08-28 16:25:00,67.5,29.4,29.85,North,353,0.0,0.0,24,0.00,,,0.04,VWS V14.01,2013-08-28 23:25:00,
2013-08-28 16:30:00,66.6,28.7,29.85,SE,139,4.0,4.0,24,0.00,,,0.04,VWS V14.01,2013-08-28 23:30:00,
2013-08-28 16:35:00,66.6,28.7,29.85,SE,139,0.0,0.0,24,0.00,,,0.04,VWS V14.01,2013-08-28 23:35:00,
2013-08-28 16:40:00,66.6,28.7,29.85,SE,139,0.0,0.0,24,0.00,,,0.04,VWS V14.01,2013-08-28 23:40:00,
2013-08-28 16:44:00,67.1,29.1,29.85,SE,139,0.0,0.0,24,0.00,,,0.04,VWS V14.01,2013-08-28 23:44:00,
2013-08-28 16:50:00,67.6,29.6,29.85,SE,139,0.0,0.0,24,0.00,,,0.04,VWS V14.01,2013-08-28 23:50:00,
2013-08-28 16:56:00,67.5,29.4,29.85,SE,139,0.0,0.0,24,0.00,,,0.04,VWS V14.01,2013-08-28 23:56:00,
2013-08-28 17:01:00,67.3,29.3,29.85,SE,139,0.0,0.0,24,0.00,,,0.04,VWS V14.01,2013-08-29 00:01:00,
2013-08-28 17:07:00,67.1,29.1,29.85,SE,139,0.0,0.0,24,0.00,,,0.04,VWS V14.01,2013-08-29 00:07:00,
2013-08-28 17:12:00,67.1,29.1,29.85,SE,139,0.0,0.0,24,0.00,,,0.04,VWS V14.01,2013-08-29 00:12:00,
2013-08-28 17:18:00,67.3,29.3,29.85,SE,139,0.0,0.0,24,0.00,,,0.04,VWS V14.01,2013-08-29 00:18:00,
2013-08-28 17:23:00,67.5,29.4,29.85,SE,139,0.0,0.0,24,0.00,,,0.04,VWS V14.01,2013-08-29 00:23:00,
2013-08-28 17:28:00,67.1,29.1,29.85,SE,139,0.0,0.0,24,0.00,,,0.04,VWS V14.01,2013-08-29 00:28:00,
2013-08-28 17:33:00,67.1,29.1,29.85,SE,139,0.0,0.0,24,0.00,,,0.04,VWS V14.01,2013-08-29 00:33:00,
2013-08-28 17:38:00,67.5,29.4,29.85,SE,139,0.0,0.0,24,0.00,,,0.04,VWS V14.01,2013-08-29 00:38:00,
2013-08-28 17:43:00,67.5,29.4,29.85,SE,139,0.0,0.0,24,0.00,,,0.04,VWS V14.01,2013-08-29 00:43:00,
2013-08-28 17:48:00,67.6,29.6,29.85,SW,231,4.0,4.0,24,0.00,,,0.04,VWS V14.01,2013-08-29 00:48:00,
2013-08-28 17:54:00,67.3,29.3,29.85,SW,228,4.9,4.9,24,0.00,,,0.04,VWS V14.01,2013-08-29 00:54:00,
2013-08-28 17:59:00,67.3,29.3,29.85,SW,230,0.0,0.0,24,0.00,,,0.04,VWS V14.01,2013-08-29 00:59:00,
2013-08-28 18:04:00,66.9,29.0,29.85,SW,230,0.0,0.0,24,0.00,,,0.04,VWS V14.01,2013-08-29 01:04:00,
2013-08-28 18:10:00,67.1,29.1,29.85,SW,230,0.0,0.0,24,0.00,,,0.04,VWS V14.01,2013-08-29 01:10:00,
2013-08-28 18:15:00,67.1,29.1,29.85,SW,230,0.0,0.0,24,0.00,,,0.04,VWS V14.01,2013-08-29 01:15:00,
2013-08-28 18:20:00,67.1,29.1,29.85,SW,230,0.0,0.0,24,0.00,,,0.04,VWS V14.01,2013-08-29 01:20:00,
2013-08-28 18:25:00,66.9,29.0,29.85,SW,230,0.0,0.0,24,0.00,,,0.04,VWS V14.01,2013-08-29 01:25:00,
2013-08-28 18:30:00,66.9,29.0,29.85,SW,230,0.0,0.0,24,0.00,,,0.04,VWS V14.01,2013-08-29 01:30:00,
2013-08-28 18:35:00,66.7,28.8,29.85,WSW,253,0.0,0.0,24,0.00,,,0.04,VWS V14.01,2013-08-29 01:35:00,
2013-08-28 18:40:00,66.6,28.7,29.85,West,265,0.0,0.0,24,0.00,,,0.04,VWS V14.01,2013-08-29 01:40:00,
2013-08-28 18:45:00,66.6,28.7,29.85,West,265,0.0,0.0,24,0.00,,,0.04,VWS V14.01,2013-08-29 01:45:00,
2013-08-28 18:50:00,66.6,28.7,29.85,West,265,0.0,0.0,24,0.00,,,0.04,VWS V14.01,2013-08-29 01:50:00,
2013-08-28 18:56:00,66.6,28.7,29.85,West,265,0.0,0.0,24,0.00,,,0.04,VWS V14.01,2013-08-29 01:56:00,
2013-08-28 19:01:00,66.6,28.7,29.85,West,265,0.0,0.0,24,0.00,,,0.04,VWS V14.01,2013-08-29 02:01:00,
2013-08-28 19:07:00,66.4,28.5,29.85,West,265,0.0,0.0,24,0.00,,,0.04,VWS V14.01,2013-08-29 02:07:00,
2013-08-28 19:12:00,66.2,28.4,29.85,West,265,0.0,0.0,24,0.00,,,0.04,VWS V14.01,2013-08-29 02:12:00,
2013-08-28 19:17:00,66.0,28.2,29.85,NW,309,0.0,0.0,24,0.00,,,0.04,VWS V14.01,2013-08-29 02:17:00,
2013-08-28 19:22:00,65.8,28.1,29.88,NW,311,0.0,0.0,24,0.00,,,0.04,VWS V14.01,2013-08-29 02:22:00,
2013-08-28 19:28:00,65.7,27.9,29.88,NW,316,0.0,0.0,24,0.00,,,0.04,VWS V14.01,2013-08-29 02:28:00,
2013-08-28 19:34:00,65.7,27.9,29.88,NW,316,0.0,0.0,24,0.00,,,0.04,VWS V14.01,2013-08-29 02:34:00,
2013-08-28 19:39:00,65.7,27.9,29.88,North,10,0.0,0.0,24,0.00,,,0.04,VWS V14.01,2013-08-29 02:39:00,
2013-08-28 19:45:00,65.5,27.8,29.88,North,10,0.0,0.0,24,0.00,,,0.04,VWS V14.01,2013-08-29 02:45:00,
2013-08-28 19:50:00,65.3,27.6,29.88,North,10,0.0,0.0,24,0.00,,,0.04,VWS V14.01,2013-08-29 02:50:00,
2013-08-28 19:55:00,65.3,27.6,29.88,North,10,0.0,0.0,24,0.00,,,0.04,VWS V14.01,2013-08-29 02:55:00,
2013-08-28 20:00:00,65.3,27.6,29.88,North,10,0.0,0.0,24,0.00,,,0.04,VWS V14.01,2013-08-29 03:00:00,
2013-08-28 20:06:00,64.9,27.3,29.88,ENE,63,0.0,0.0,24,0.00,,,0.04,VWS V14.01,2013-08-29 03:06:00,
2013-08-28 20:12:00,64.8,27.2,29.88,North,2,0.0,0.0,24,0.00,,,0.04,VWS V14.01,2013-08-29 03:12:00,
2013-08-28 20:17:00,64.4,26.9,29.88,North,357,0.0,0.0,24,0.08,,,0.12,VWS V14.01,2013-08-29 03:17:00,
2013-08-28 20:22:00,64.8,27.2,29.88,North,357,0.0,0.0,24,0.08,,,0.12,VWS V14.01,2013-08-29 03:22:00,
2013-08-28 20:27:00,64.4,26.9,29.88,North,357,0.0,0.0,24,0.08,,,0.12,VWS V14.01,2013-08-29 03:27:00,
2013-08-28 20:33:00,64.6,27.0,29.88,North,357,0.0,0.0,24,0.08,,,0.12,VWS V14.01,2013-08-29 03:33:00,
2013-08-28 20:38:00,64.6,27.0,29.88,WSW,258,0.0,0.0,24,0.08,,,0.12,VWS V14.01,2013-08-29 03:38:00,
2013-08-28 20:43:00,64.6,27.0,29.88,SW,226,3.6,3.6,24,0.08,,,0.12,VWS V14.01,2013-08-29 03:43:00,
2013-08-28 20:48:00,64.8,27.2,29.88,SW,232,0.0,0.0,24,0.08,,,0.12,VWS V14.01,2013-08-29 03:48:00,
2013-08-28 20:54:00,64.8,27.2,29.88,SW,232,0.0,0.0,24,0.08,,,0.12,VWS V14.01,2013-08-29 03:54:00,
2013-08-28 20:59:00,64.8,28.1,29.88,West,262,0.0,0.0,25,0.08,,,0.12,VWS V14.01,2013-08-29 03:59:00,
2013-08-28 21:01:00,64.6,28.0,29.88,SSW,212,3.6,3.6,25,0.08,,,0.12,VWS V14.01,2013-08-29 04:01:00,
2013-08-28 21:04:00,64.6,28.0,29.88,SW,220,0.0,2.7,25,0.08,,,0.12,VWS V14.01,2013-08-29 04:04:00,
2013-08-28 21:06:00,64.4,27.8,29.88,SW,221,0.0,0.0,25,0.08,,,0.12,VWS V14.01,2013-08-29 04:06:00,
2013-08-28 21:08:00,64.4,27.8,29.88,SW,221,0.0,0.0,25,0.08,,,0.12,VWS V14.01,2013-08-29 04:08:00,
2013-08-28 21:13:00,64.4,27.8,29.88,SW,226,0.0,0.0,25,0.08,,,0.12,VWS V14.01,2013-08-29 04:13:00,
2013-08-28 21:18:00,64.0,27.5,29.88,SW,226,0.0,0.0,25,0.00,,,0.12,VWS V14.01,2013-08-29 04:18:00,
2013-08-28 21:23:00,63.7,27.2,29.88,SW,226,0.0,0.0,25,0.00,,,0.12,VWS V14.01,2013-08-29 04:23:00,
2013-08-28 21:29:00,63.5,27.1,29.88,SW,226,0.0,0.0,25,0.00,,,0.12,VWS V14.01,2013-08-29 04:29:00,
2013-08-28 21:34:00,63.7,27.2,29.88,SW,224,0.0,4.0,25,0.00,,,0.12,VWS V14.01,2013-08-29 04:34:00,
2013-08-28 21:40:00,63.3,26.9,29.88,SW,225,0.0,0.0,25,0.00,,,0.12,VWS V14.01,2013-08-29 04:40:00,
2013-08-28 21:45:00,63.1,26.8,29.88,SW,225,0.0,0.0,25,0.00,,,0.12,VWS V14.01,2013-08-29 04:45:00,
2013-08-28 21:51:00,63.1,26.8,29.88,SW,225,0.0,0.0,25,0.00,,,0.12,VWS V14.01,2013-08-29 04:51:00,
2013-08-28 21:56:00,63.0,26.6,29.88,WSW,250,0.0,0.0,25,0.00,,,0.12,VWS V14.01,2013-08-29 04:56:00,
2013-08-28 22:01:00,63.0,26.6,29.88,WSW,244,0.0,0.0,25,0.00,,,0.12,VWS V14.01,2013-08-29 05:01:00,
2013-08-28 22:06:00,63.0,26.6,29.88,WSW,244,0.0,0.0,25,0.00,,,0.12,VWS V14.01,2013-08-29 05:06:00,
2013-08-28 22:11:00,62.8,26.5,29.88,WSW,244,0.0,0.0,25,0.00,,,0.12,VWS V14.01,2013-08-29 05:11:00,
2013-08-28 22:16:00,63.0,26.6,29.88,WSW,244,0.0,0.0,25,0.00,,,0.12,VWS V14.01,2013-08-29 05:16:00,
2013-08-28 22:22:00,62.6,26.3,29.91,WSW,244,0.0,0.0,25,0.00,,,0.12,VWS V14.01,2013-08-29 05:22:00,
2013-08-28 22:27:00,62.4,26.2,29.91,WSW,245,0.0,0.0,25,0.00,,,0.12,VWS V14.01,2013-08-29 05:27:00,
2013-08-28 22:32:00,62.4,27.1,29.91,WSW,251,0.0,0.0,26,0.00,,,0.12,VWS V14.01,2013-08-29 05:32:00,
2013-08-28 22:37:00,62.4,27.1,29.91,WSW,251,0.0,0.0,26,0.00,,,0.12,VWS V14.01,2013-08-29 05:37:00,
2013-08-28 22:42:00,62.4,27.1,29.91,WSW,251,0.0,0.0,26,0.00,,,0.12,VWS V14.01,2013-08-29 05:42:00,
2013-08-28 22:48:00,62.2,27.0,29.91,WSW,251,0.0,0.0,26,0.00,,,0.12,VWS V14.01,2013-08-29 05:48:00,
2013-08-28 22:53:00,62.1,26.8,29.91,WSW,251,0.0,0.0,26,0.00,,,0.12,VWS V14.01,2013-08-29 05:53:00,
2013-08-28 22:58:00,61.9,26.6,29.91,WSW,251,0.0,0.0,26,0.00,,,0.12,VWS V14.01,2013-08-29 05:58:00,
2013-08-28 23:03:00,61.9,26.6,29.91,WSW,251,0.0,0.0,26,0.00,,,0.12,VWS V14.01,2013-08-29 06:03:00,
2013-08-28 23:08:00,61.9,26.6,29.88,WSW,256,0.0,0.0,26,0.00,,,0.12,VWS V14.01,2013-08-29 06:08:00,
2013-08-28 23:14:00,61.9,26.6,29.88,WSW,256,0.0,0.0,26,0.00,,,0.12,VWS V14.01,2013-08-29 06:14:00,
2013-08-28 23:19:00,61.9,26.6,29.88,WSW,256,0.0,0.0,26,0.00,,,0.12,VWS V14.01,2013-08-29 06:19:00,
2013-08-28 23:24:00,61.7,26.5,29.88,WSW,256,0.0,0.0,26,0.00,,,0.12,VWS V14.01,2013-08-29 06:24:00,
2013-08-28 23:30:00,61.7,26.5,29.88,WSW,256,0.0,0.0,26,0.00,,,0.12,VWS V14.01,2013-08-29 06:30:00,
2013-08-28 23:35:00,61.5,26.3,29.88,WSW,256,0.0,0.0,26,0.00,,,0.12,VWS V14.01,2013-08-29 06:35:00,
2013-08-28 23:40:00,62.1,26.8,29.91,SW,230,2.7,4.0,26,0.00,,,0.12,VWS V14.01,2013-08-29 06:40:00,
2013-08-28 23:45:00,61.9,26.6,29.91,WNW,299,0.0,0.0,26,0.00,,,0.12,VWS V14.01,2013-08-29 06:45:00,
2013-08-28 23:50:00,61.3,26.2,29.91,North,353,0.0,0.0,26,0.00,,,0.12,VWS V14.01,2013-08-29 06:50:00,
2013-08-28 23:55:00,61.2,26.0,29.91,North,353,0.0,0.0,26,0.00,,,0.12,VWS V14.01,2013-08-29 06:55:00,